createdAt,value
2023-03-02T00:01:28.490Z,80.68
2023-03-02T00:03:59.675Z,80.76
2023-03-02T00:06:29.620Z,80.63
2023-03-02T00:09:00.639Z,81.92
2023-03-02T00:11:30.254Z,82.31
2023-03-02T00:13:56.995Z,82.50
2023-03-02T00:16:23.844Z,82.34
2023-03-02T00:18:50.452Z,83.12
2023-03-02T00:21:17.286Z,83.65
2023-03-02T00:23:44.939Z,82.97
2023-03-02T00:26:11.718Z,83.39
2023-03-02T00:28:38.283Z,84.39
2023-03-02T00:31:05.675Z,83.94
2023-03-02T00:33:33.555Z,83.85
2023-03-02T00:36:01.006Z,84.79
2023-03-02T00:38:27.748Z,84.74
2023-03-02T00:40:55.551Z,84.34
2023-03-02T00:43:27.296Z,83.71
2023-03-02T00:45:55.407Z,84.37
2023-03-02T00:48:22.909Z,83.94
2023-03-02T00:50:49.595Z,83.57
2023-03-02T00:53:18.015Z,83.83
2023-03-02T00:55:53.694Z,82.98
2023-03-02T00:58:21.365Z,82.68
2023-03-02T01:00:48.281Z,83.13
2023-03-02T01:03:15.051Z,83.21
2023-03-02T01:05:41.673Z,84.35
2023-03-02T01:08:08.452Z,83.89
2023-03-02T01:10:35.064Z,85.01
2023-03-02T01:13:01.712Z,85.39
2023-03-02T01:15:28.295Z,86.07
2023-03-02T01:17:55.050Z,86.31
2023-03-02T01:20:21.617Z,86.57
2023-03-02T01:22:48.487Z,86.63
2023-03-02T01:25:15.100Z,86.46
2023-03-02T01:27:41.692Z,85.24
2023-03-02T01:30:08.984Z,85.65
2023-03-02T01:32:35.684Z,85.21
2023-03-02T01:35:02.319Z,86.08
2023-03-02T01:37:28.942Z,86.37
2023-03-02T01:39:55.506Z,86.39
2023-03-02T01:42:22.092Z,87.10
2023-03-02T01:44:50.904Z,85.87
2023-03-02T01:47:38.960Z,86.64
2023-03-02T01:50:19.310Z,86.66
2023-03-02T01:52:47.130Z,86.09
2023-03-02T01:55:20.164Z,86.81
2023-03-02T01:57:49.928Z,86.05
2023-03-02T02:00:22.387Z,86.11
2023-03-02T02:02:51.470Z,84.88
2023-03-02T02:05:25.541Z,85.53
2023-03-02T02:07:52.380Z,85.53
2023-03-02T02:10:19.751Z,85.78
2023-03-02T02:12:46.328Z,85.82
2023-03-02T02:15:13.028Z,86.55
2023-03-02T02:17:40.443Z,86.37
2023-03-02T02:20:42.827Z,86.47
2023-03-02T02:23:24.326Z,86.82
2023-03-02T02:25:53.639Z,86.63
2023-03-02T02:28:25.252Z,86.19
2023-03-02T02:30:59.452Z,86.47
2023-03-02T02:33:27.337Z,85.49
2023-03-02T02:35:57.675Z,86.04
2023-03-02T02:38:25.618Z,85.84
2023-03-02T02:40:57.221Z,85.08
2023-03-02T02:43:23.831Z,86.50
2023-03-02T02:45:54.352Z,86.00
2023-03-02T02:48:24.309Z,86.83
2023-03-02T02:51:00.437Z,86.72
2023-03-02T02:53:35.890Z,86.90
2023-03-02T02:56:04.507Z,86.47
2023-03-02T02:58:50.402Z,85.80
2023-03-02T03:01:19.532Z,86.63
2023-03-02T03:04:01.125Z,86.21
2023-03-02T03:06:42.673Z,86.15
2023-03-02T03:09:12.492Z,86.09
2023-03-02T03:11:46.474Z,86.23
2023-03-02T03:14:28.098Z,86.27
2023-03-02T03:16:55.134Z,86.10
2023-03-02T03:19:33.079Z,85.35
2023-03-02T03:22:01.448Z,85.46
2023-03-02T03:24:30.830Z,85.85
2023-03-02T03:26:58.449Z,86.54
2023-03-02T03:29:27.903Z,86.81
2023-03-02T03:31:57.025Z,86.64
2023-03-02T03:34:24.464Z,86.54
2023-03-02T03:36:51.691Z,86.73
2023-03-02T03:39:18.765Z,86.77
2023-03-02T03:41:45.342Z,86.63
2023-03-02T03:44:12.864Z,86.19
2023-03-02T03:46:39.716Z,86.58
2023-03-02T03:49:06.514Z,85.94
2023-03-02T03:51:35.524Z,86.38
2023-03-02T03:54:08.335Z,86.41
2023-03-02T03:56:45.034Z,85.92
2023-03-02T03:59:13.999Z,86.19
2023-03-02T04:01:46.900Z,85.75
2023-03-02T04:04:17.784Z,85.98
2023-03-02T04:06:44.556Z,85.26
2023-03-02T04:09:12.329Z,85.14
2023-03-02T04:11:41.266Z,85.36
2023-03-02T04:14:09.186Z,86.03
2023-03-02T04:16:37.073Z,86.60
2023-03-02T04:19:09.507Z,86.61
2023-03-02T04:21:41.105Z,86.27
2023-03-02T04:24:09.345Z,87.11
2023-03-02T04:26:37.217Z,87.69
2023-03-02T04:29:03.917Z,87.60
2023-03-02T04:31:31.341Z,87.16
2023-03-02T04:33:58.705Z,86.73
2023-03-02T04:36:25.627Z,87.25
2023-03-02T04:38:53.021Z,86.98
2023-03-02T04:41:19.740Z,86.50
2023-03-02T04:43:46.317Z,87.23
2023-03-02T04:46:20.041Z,86.91
2023-03-02T04:48:46.685Z,86.76
2023-03-02T04:51:31.418Z,86.56
2023-03-02T04:54:01.214Z,86.41
2023-03-02T04:56:28.733Z,86.83
2023-03-02T04:58:55.758Z,86.74
2023-03-02T05:01:22.601Z,86.85
2023-03-02T05:03:49.359Z,87.02
2023-03-02T05:06:16.926Z,86.74
2023-03-02T05:08:44.574Z,87.33
2023-03-02T05:11:21.876Z,87.80
2023-03-02T05:13:50.621Z,88.31
2023-03-02T05:16:18.026Z,88.51
2023-03-02T05:18:44.628Z,88.44
2023-03-02T05:21:12.100Z,88.50
2023-03-02T05:23:39.945Z,88.44
2023-03-02T05:26:06.642Z,88.33
2023-03-02T05:28:33.520Z,88.00
2023-03-02T05:31:00.445Z,87.83
2023-03-02T05:33:27.073Z,88.44
2023-03-02T05:35:53.750Z,88.09
2023-03-02T05:38:20.665Z,87.73
2023-03-02T05:40:48.180Z,88.43
2023-03-02T05:43:18.717Z,88.13
2023-03-02T05:45:46.120Z,87.38
2023-03-02T05:48:14.083Z,87.32
2023-03-02T05:50:41.570Z,87.82
2023-03-02T05:53:08.190Z,87.88
2023-03-02T05:55:37.167Z,88.32
2023-03-02T05:58:06.785Z,87.91
2023-03-02T06:00:33.568Z,88.25
2023-03-02T06:03:00.244Z,88.43
2023-03-02T06:05:26.911Z,88.87
2023-03-02T06:07:53.879Z,88.18
2023-03-02T06:10:20.804Z,88.12
2023-03-02T06:12:47.371Z,88.19
2023-03-02T06:15:14.073Z,88.67
2023-03-02T06:17:40.681Z,88.98
2023-03-02T06:20:10.543Z,89.05
2023-03-02T06:22:41.381Z,89.16
2023-03-02T06:25:10.439Z,88.96
2023-03-02T06:27:38.763Z,89.53
2023-03-02T06:30:07.216Z,89.69
2023-03-02T06:32:35.319Z,89.55
2023-03-02T06:35:06.047Z,89.91
2023-03-02T06:37:33.447Z,89.90
2023-03-02T06:40:00.543Z,88.99
2023-03-02T06:42:28.213Z,89.13
2023-03-02T06:44:55.214Z,89.00
2023-03-02T06:47:22.836Z,89.34
2023-03-02T06:49:49.409Z,88.69
2023-03-02T06:52:16.436Z,89.21
2023-03-02T06:54:43.046Z,89.15
2023-03-02T06:57:09.779Z,89.33
2023-03-02T06:59:36.546Z,89.28
2023-03-02T07:02:03.360Z,89.29
2023-03-02T07:04:32.356Z,89.42
2023-03-02T07:06:59.000Z,89.29
2023-03-02T07:09:25.657Z,89.70
2023-03-02T07:11:52.254Z,89.72
2023-03-02T07:14:18.792Z,89.64
2023-03-02T07:16:45.369Z,90.11
2023-03-02T07:19:15.201Z,90.03
2023-03-02T07:21:41.841Z,89.83
2023-03-02T07:24:08.588Z,88.77
2023-03-02T07:26:35.168Z,88.45
2023-03-02T07:29:01.908Z,84.93
2023-03-02T07:31:28.804Z,82.41
2023-03-02T07:33:55.516Z,82.61
2023-03-02T07:36:22.152Z,79.80
2023-03-02T07:38:48.844Z,80.86
2023-03-02T07:41:16.900Z,79.71
2023-03-02T07:43:43.944Z,75.51
2023-03-02T07:46:10.704Z,72.53
2023-03-02T07:48:37.498Z,71.99
2023-03-02T07:51:06.805Z,68.74
2023-03-02T07:53:33.557Z,68.83
2023-03-02T07:56:02.308Z,66.53
2023-03-02T07:58:28.997Z,66.21
2023-03-02T08:00:55.909Z,63.75
2023-03-02T08:03:22.569Z,65.23
2023-03-02T08:05:49.188Z,62.25
2023-03-02T08:08:15.821Z,62.57
2023-03-02T08:10:42.373Z,60.53
2023-03-02T08:13:09.002Z,59.85
2023-03-02T08:15:35.602Z,60.33
2023-03-02T08:18:02.170Z,60.30
2023-03-02T08:20:28.781Z,58.18
2023-03-02T08:22:55.335Z,59.17
2023-03-02T08:25:21.942Z,58.27
2023-03-02T08:27:48.613Z,57.38
2023-03-02T08:30:15.413Z,54.65
2023-03-02T08:32:42.033Z,55.30
2023-03-02T08:35:09.188Z,53.87
2023-03-02T08:37:35.828Z,52.78
2023-03-02T08:40:02.391Z,51.88
2023-03-02T08:42:28.934Z,51.79
2023-03-02T08:44:55.497Z,51.89
2023-03-02T08:47:22.062Z,50.51
2023-03-02T08:49:49.897Z,50.07
2023-03-02T08:52:16.476Z,49.81
2023-03-02T08:54:43.093Z,49.33
2023-03-02T08:57:12.950Z,50.02
2023-03-02T08:59:39.886Z,47.61
2023-03-02T09:02:07.456Z,45.74
2023-03-02T09:04:34.135Z,46.96
2023-03-02T09:07:00.747Z,44.97
2023-03-02T09:09:27.312Z,43.12
2023-03-02T09:11:53.894Z,44.89
2023-03-02T09:14:20.578Z,45.71
2023-03-02T09:16:47.415Z,44.45
2023-03-02T09:19:14.493Z,43.57
2023-03-02T09:21:41.149Z,44.14
2023-03-02T09:24:07.990Z,42.12
2023-03-02T09:26:35.009Z,42.91
2023-03-02T09:29:01.973Z,42.96
2023-03-02T09:31:30.335Z,38.71
2023-03-02T09:33:57.395Z,38.15
2023-03-02T09:36:26.160Z,39.33
2023-03-02T09:38:53.365Z,41.15
2023-03-02T09:41:19.942Z,40.79
2023-03-02T09:44:00.103Z,38.94
2023-03-02T09:47:00.170Z,38.35
2023-03-02T09:50:04.153Z,39.86
2023-03-02T09:52:32.439Z,41.44
2023-03-02T09:55:14.676Z,39.43
2023-03-02T09:57:42.081Z,40.65
2023-03-02T10:00:19.924Z,39.84
2023-03-02T10:02:56.212Z,39.52
2023-03-02T10:05:33.199Z,38.27
2023-03-02T10:08:00.361Z,38.03
2023-03-02T10:10:45.226Z,38.02
2023-03-02T10:13:30.697Z,37.89
2023-03-02T10:16:12.241Z,37.54
2023-03-02T10:18:45.759Z,38.15
2023-03-02T10:21:50.891Z,37.27
2023-03-02T10:24:38.816Z,37.60
2023-03-02T10:27:24.583Z,38.35
2023-03-02T10:29:59.894Z,38.14
2023-03-02T10:32:33.035Z,37.23
2023-03-02T10:35:02.402Z,37.08
2023-03-02T10:37:30.735Z,35.97
2023-03-02T10:39:57.515Z,35.01
2023-03-02T10:42:32.319Z,33.32
2023-03-02T10:45:32.918Z,33.00
2023-03-02T10:48:10.970Z,30.44
2023-03-02T10:50:38.165Z,29.79
2023-03-02T10:53:08.700Z,30.16
2023-03-02T10:55:35.453Z,29.54
2023-03-02T10:58:06.777Z,28.43
2023-03-02T11:00:35.337Z,27.01
2023-03-02T11:03:06.068Z,25.38
2023-03-02T11:05:40.051Z,24.88
2023-03-02T11:08:10.659Z,26.38
2023-03-02T11:10:39.507Z,25.15
2023-03-02T11:13:18.817Z,24.66
2023-03-02T11:15:52.079Z,25.04
2023-03-02T11:18:41.983Z,22.82
2023-03-02T11:21:16.234Z,22.01
2023-03-02T11:23:52.386Z,22.93
2023-03-02T11:26:28.800Z,21.63
2023-03-02T11:29:11.675Z,21.73
2023-03-02T11:31:47.077Z,20.80
2023-03-02T11:34:44.536Z,19.71
2023-03-02T11:37:27.929Z,19.04
2023-03-02T11:39:57.474Z,19.06
2023-03-02T11:42:31.560Z,18.78
2023-03-02T11:45:03.280Z,18.59
2023-03-02T11:47:32.914Z,18.61
2023-03-02T11:50:05.391Z,18.42
2023-03-02T11:52:37.722Z,18.36
2023-03-02T11:55:13.113Z,17.74
2023-03-02T11:57:48.652Z,17.32
2023-03-02T12:00:30.859Z,17.87
2023-03-02T12:03:01.900Z,17.41
2023-03-02T12:05:31.453Z,17.54
2023-03-02T12:08:17.676Z,17.89
2023-03-02T12:10:57.571Z,17.69
2023-03-02T12:13:43.314Z,17.91
2023-03-02T12:16:22.028Z,17.17
2023-03-02T12:18:50.765Z,18.03
2023-03-02T12:21:21.186Z,17.35
2023-03-02T12:23:47.688Z,17.16
2023-03-02T12:26:20.423Z,17.49
2023-03-02T12:29:03.765Z,17.35
2023-03-02T12:31:51.678Z,17.47
2023-03-02T12:34:24.460Z,17.08
2023-03-02T12:36:57.999Z,16.58
2023-03-02T12:39:27.395Z,16.58
2023-03-02T12:42:39.773Z,16.81
2023-03-02T12:45:36.507Z,16.55
2023-03-02T12:48:19.337Z,17.03
2023-03-02T12:50:48.166Z,17.01
2023-03-02T12:53:19.492Z,16.33
2023-03-02T12:55:46.682Z,16.81
2023-03-02T12:58:23.662Z,16.53
2023-03-02T13:01:00.197Z,16.38
2023-03-02T13:03:30.328Z,17.52
2023-03-02T13:06:04.575Z,17.23
2023-03-02T13:08:32.320Z,16.59
2023-03-02T13:11:01.899Z,16.35
2023-03-02T13:13:39.848Z,16.80
2023-03-02T13:16:28.312Z,16.62
2023-03-02T13:18:58.084Z,16.19
2023-03-02T13:21:31.412Z,15.37
2023-03-02T13:23:58.238Z,16.18
2023-03-02T13:26:35.994Z,15.78
2023-03-02T13:29:06.181Z,17.13
2023-03-02T13:31:35.177Z,16.59
2023-03-02T13:34:01.961Z,16.32
2023-03-02T13:36:35.388Z,17.00
2023-03-02T13:39:06.994Z,17.51
2023-03-02T13:41:36.613Z,17.75
2023-03-02T13:44:19.916Z,16.65
2023-03-02T13:46:47.134Z,17.03
2023-03-02T13:49:13.743Z,17.07
2023-03-02T13:51:43.515Z,16.59
2023-03-02T13:54:22.899Z,17.31
2023-03-02T13:56:51.248Z,17.20
2023-03-02T13:59:19.936Z,16.90
2023-03-02T14:01:46.889Z,17.80
2023-03-02T14:04:17.640Z,17.66
2023-03-02T14:06:45.765Z,17.41
2023-03-02T14:09:13.205Z,16.55
2023-03-02T14:11:45.825Z,16.66
2023-03-02T14:14:16.422Z,17.36
2023-03-02T14:16:43.159Z,17.79
2023-03-02T14:19:16.305Z,17.30
2023-03-02T14:21:43.488Z,17.37
2023-03-02T14:24:10.560Z,18.15
2023-03-02T14:26:57.934Z,17.94
2023-03-02T14:29:33.451Z,18.12
2023-03-02T14:32:06.679Z,18.27
2023-03-02T14:34:36.103Z,17.90
2023-03-02T14:37:06.461Z,18.46
2023-03-02T14:39:38.231Z,18.23
2023-03-02T14:42:06.356Z,17.69
2023-03-02T14:44:33.040Z,17.73
2023-03-02T14:46:59.661Z,17.89
2023-03-02T14:49:26.251Z,18.75
2023-03-02T14:52:08.669Z,19.10
2023-03-02T14:54:41.455Z,19.29
2023-03-02T14:57:22.085Z,19.11
2023-03-02T14:59:49.355Z,19.32
2023-03-02T15:02:25.295Z,19.48
2023-03-02T15:04:56.160Z,19.55
2023-03-02T15:07:25.171Z,20.32
2023-03-02T15:09:51.750Z,19.77
2023-03-02T15:12:18.324Z,19.48
2023-03-02T15:14:44.911Z,21.13
2023-03-02T15:17:11.502Z,21.87
2023-03-02T15:19:38.061Z,22.11
2023-03-02T15:22:05.045Z,22.08
2023-03-02T15:24:33.380Z,22.45
2023-03-02T15:27:00.627Z,23.34
2023-03-02T15:29:27.304Z,23.79
2023-03-02T15:31:53.948Z,24.83
2023-03-02T15:34:20.640Z,24.54
2023-03-02T15:36:47.226Z,24.63
2023-03-02T15:39:14.783Z,25.32
2023-03-02T15:41:44.286Z,26.41
2023-03-02T15:44:22.096Z,26.68
2023-03-02T15:46:50.232Z,26.24
2023-03-02T15:49:17.171Z,25.87
2023-03-02T15:51:45.924Z,25.94
2023-03-02T15:54:12.647Z,27.32
2023-03-02T15:56:44.313Z,27.26
2023-03-02T15:59:12.113Z,28.12
2023-03-02T16:01:39.074Z,28.88
2023-03-02T16:04:05.723Z,29.29
2023-03-02T16:06:32.304Z,29.48
2023-03-02T16:08:58.850Z,29.43
2023-03-02T16:11:25.418Z,29.85
2023-03-02T16:13:52.465Z,29.79
2023-03-02T16:16:20.555Z,30.28
2023-03-02T16:18:55.311Z,31.76
2023-03-02T16:21:22.302Z,31.56
2023-03-02T16:23:49.441Z,31.89
2023-03-02T16:26:21.784Z,31.94
2023-03-02T16:28:48.948Z,32.96
2023-03-02T16:31:19.001Z,33.21
2023-03-02T16:33:46.761Z,34.23
2023-03-02T16:36:14.611Z,34.55
2023-03-02T16:38:41.558Z,34.31
2023-03-02T16:41:19.836Z,34.52
2023-03-02T16:43:54.599Z,34.10
2023-03-02T16:46:23.224Z,34.62
2023-03-02T16:48:49.964Z,36.55
2023-03-02T16:51:18.173Z,36.44
2023-03-02T16:53:45.457Z,36.97
2023-03-02T16:56:13.196Z,39.07
2023-03-02T16:58:41.423Z,38.31
2023-03-02T17:01:11.666Z,39.40
2023-03-02T17:03:38.362Z,40.31
2023-03-02T17:06:06.096Z,41.68
2023-03-02T17:08:32.672Z,41.87
2023-03-02T17:10:59.294Z,41.61
2023-03-02T17:13:25.923Z,41.97
2023-03-02T17:15:52.942Z,42.70
2023-03-02T17:18:19.674Z,43.05
2023-03-02T17:20:46.578Z,43.61
2023-03-02T17:23:14.205Z,44.03
2023-03-02T17:25:40.819Z,44.60
2023-03-02T17:28:07.448Z,45.07
2023-03-02T17:30:34.465Z,44.25
2023-03-02T17:33:01.292Z,44.09
2023-03-02T17:35:27.872Z,44.09
2023-03-02T17:37:54.659Z,44.75
2023-03-02T17:40:21.373Z,45.65
2023-03-02T17:42:48.026Z,46.44
2023-03-02T17:45:18.140Z,45.67
2023-03-02T17:47:44.875Z,46.54
2023-03-02T17:50:13.196Z,47.07
2023-03-02T17:52:39.854Z,46.50
2023-03-02T17:55:07.429Z,46.42
2023-03-02T17:57:34.079Z,46.28
2023-03-02T18:00:00.708Z,47.63
2023-03-02T18:02:27.265Z,47.49
2023-03-02T18:04:53.840Z,48.80
2023-03-02T18:07:20.368Z,49.94
2023-03-02T18:09:47.050Z,49.46
2023-03-02T18:12:13.576Z,50.58
2023-03-02T18:14:40.208Z,49.97
2023-03-02T18:17:08.792Z,51.07
2023-03-02T18:19:36.944Z,50.70
2023-03-02T18:22:04.333Z,51.74
2023-03-02T18:24:30.957Z,52.00
2023-03-02T18:26:57.613Z,52.94
2023-03-02T18:29:24.293Z,53.13
2023-03-02T18:31:53.257Z,52.99
2023-03-02T18:34:20.501Z,52.28
2023-03-02T18:36:47.530Z,54.13
2023-03-02T18:39:14.240Z,55.01
2023-03-02T18:41:41.275Z,54.85
2023-03-02T18:44:07.969Z,54.95
2023-03-02T18:46:34.614Z,55.60
2023-03-02T18:49:01.275Z,55.13
2023-03-02T18:51:28.100Z,56.89
2023-03-02T18:53:55.820Z,56.44
2023-03-02T18:56:23.077Z,57.36
2023-03-02T18:58:51.434Z,56.86
2023-03-02T19:01:18.805Z,57.68
2023-03-02T19:03:46.030Z,57.66
2023-03-02T19:06:14.140Z,58.06
2023-03-02T19:08:41.016Z,59.04
2023-03-02T19:11:09.118Z,59.49
2023-03-02T19:13:35.766Z,59.76
2023-03-02T19:16:03.024Z,59.06
2023-03-02T19:18:30.418Z,59.48
2023-03-02T19:20:57.754Z,60.29
2023-03-02T19:23:24.896Z,60.96
2023-03-02T19:25:51.896Z,61.52
2023-03-02T19:28:18.626Z,60.65
2023-03-02T19:30:45.235Z,61.61
2023-03-02T19:33:11.830Z,61.38
2023-03-02T19:35:39.050Z,62.71
2023-03-02T19:38:06.846Z,61.83
2023-03-02T19:40:34.581Z,62.22
2023-03-02T19:43:02.232Z,61.95
2023-03-02T19:45:32.552Z,62.96
2023-03-02T19:48:01.588Z,63.07
2023-03-02T19:50:29.620Z,63.46
2023-03-02T19:52:56.711Z,63.37
2023-03-02T19:55:24.409Z,63.86
2023-03-02T19:57:56.486Z,64.77
2023-03-02T20:00:24.023Z,64.41
2023-03-02T20:02:50.891Z,64.63
2023-03-02T20:05:18.071Z,65.08
2023-03-02T20:07:45.095Z,65.06
2023-03-02T20:10:22.451Z,65.35
2023-03-02T20:12:49.014Z,65.95
2023-03-02T20:15:16.733Z,66.37
2023-03-02T20:17:43.533Z,66.10
2023-03-02T20:20:11.912Z,66.80
2023-03-02T20:22:38.435Z,67.41
2023-03-02T20:25:05.565Z,67.17
2023-03-02T20:27:32.261Z,67.85
2023-03-02T20:29:59.312Z,68.39
2023-03-02T20:32:25.941Z,68.08
2023-03-02T20:34:52.568Z,68.45
2023-03-02T20:37:19.180Z,68.72
2023-03-02T20:39:48.022Z,68.00
2023-03-02T20:42:14.648Z,68.55
2023-03-02T20:44:41.404Z,68.65
2023-03-02T20:47:11.401Z,68.98
2023-03-02T20:49:38.153Z,68.89
2023-03-02T20:52:05.503Z,68.60
2023-03-02T20:54:36.477Z,66.64
2023-03-02T20:57:05.368Z,69.18
2023-03-02T20:59:32.695Z,69.39
2023-03-02T21:01:59.632Z,69.87
2023-03-02T21:04:29.076Z,70.33
2023-03-02T21:06:56.227Z,70.12
2023-03-02T21:09:22.805Z,69.00
2023-03-02T21:11:49.407Z,69.38
2023-03-02T21:14:16.192Z,69.79
2023-03-02T21:16:44.291Z,69.80
2023-03-02T21:19:16.011Z,70.33
2023-03-02T21:21:42.895Z,71.66
2023-03-02T21:24:18.089Z,71.08
2023-03-02T21:26:46.296Z,71.12
2023-03-02T21:29:13.636Z,70.86
2023-03-02T21:31:42.307Z,72.19
2023-03-02T21:34:08.910Z,72.11
2023-03-02T21:36:35.727Z,71.61
2023-03-02T21:39:05.037Z,71.54
2023-03-02T21:41:31.666Z,71.90
2023-03-02T21:43:58.540Z,71.68
2023-03-02T21:46:25.379Z,72.87
2023-03-02T21:48:52.150Z,72.22
2023-03-02T21:51:19.069Z,73.07
2023-03-02T21:53:46.165Z,73.24
2023-03-02T21:56:23.817Z,73.21
2023-03-02T21:58:52.762Z,73.31
2023-03-02T22:01:19.740Z,72.34
2023-03-02T22:03:46.606Z,73.13
2023-03-02T22:06:19.045Z,73.57
2023-03-02T22:08:45.877Z,74.09
2023-03-02T22:11:22.823Z,74.58
2023-03-02T22:13:52.432Z,74.54
2023-03-02T22:16:27.452Z,74.42
2023-03-02T22:19:01.000Z,74.76
2023-03-02T22:21:37.497Z,74.23
2023-03-02T22:24:10.580Z,74.65
2023-03-02T22:26:52.401Z,74.82
2023-03-02T22:29:27.907Z,74.89
2023-03-02T22:31:57.271Z,74.91
2023-03-02T22:34:29.832Z,74.90
2023-03-02T22:37:09.611Z,75.35
2023-03-02T22:39:36.461Z,75.14
2023-03-02T22:42:19.219Z,75.63
2023-03-02T22:45:15.336Z,75.97
2023-03-02T22:47:43.436Z,75.72
2023-03-02T22:50:24.394Z,75.98
2023-03-02T22:52:52.734Z,76.39
2023-03-02T22:55:36.895Z,75.88
2023-03-02T22:58:22.222Z,75.31
2023-03-02T23:00:49.951Z,75.54
2023-03-02T23:03:22.377Z,73.78
2023-03-02T23:05:52.904Z,72.73
2023-03-02T23:08:28.958Z,74.09
2023-03-02T23:10:59.414Z,74.35
2023-03-02T23:13:36.957Z,74.37
2023-03-02T23:16:24.586Z,74.33
2023-03-02T23:18:53.966Z,75.11
2023-03-02T23:21:28.228Z,75.42
2023-03-02T23:23:55.317Z,75.24
2023-03-02T23:26:21.925Z,76.32
2023-03-02T23:28:50.060Z,77.50
2023-03-02T23:31:18.480Z,75.98
2023-03-02T23:33:45.235Z,76.08
2023-03-02T23:36:11.933Z,76.97
2023-03-02T23:38:39.576Z,76.35
2023-03-02T23:41:07.484Z,76.05
2023-03-02T23:43:35.333Z,76.21
2023-03-02T23:46:02.007Z,78.59
2023-03-02T23:48:28.656Z,77.82
2023-03-02T23:50:55.210Z,79.21
2023-03-02T23:53:24.070Z,78.58
2023-03-02T23:55:53.518Z,78.83
2023-03-02T23:58:20.437Z,79.27
